Time;durP1;ratioP1;P1;durP2;ratioP2;P2;SDS_P1;SDS_P2;PMS_P1;PMS_P2;Temp;Humidity;BMP_temperature;BMP_pressure;BME280_temperature;BME280_humidity;BME280_pressure;Samples;Min_cycle;Max_cycle;Signal;HPM_P1;HPM_P2
2023/07/03 00:00:50;;;;;;;9.80;2.80;;;16.40;99.90;;;;;;5054804;28;20045;-70
2023/07/03 00:03:16;;;;;;;9.07;2.53;;;16.30;99.90;;;;;;5036733;28;20118;-70
2023/07/03 00:05:46;;;;;;;10.25;2.67;;;16.30;99.90;;;;;;5035906;28;20041;-70
2023/07/03 00:08:12;;;;;;;10.55;2.22;;;16.30;99.90;;;;;;5054430;28;20049;-70
2023/07/03 00:10:38;;;;;;;7.22;2.38;;;16.30;99.90;;;;;;5036342;28;20041;-70
2023/07/03 00:13:04;;;;;;;7.47;2.60;;;16.40;99.90;;;;;;5035735;28;20044;-70
2023/07/03 00:15:30;;;;;;;8.02;2.45;;;16.40;99.90;;;;;;5054411;28;20049;-70
2023/07/03 00:17:56;;;;;;;10.60;2.45;;;16.40;99.90;;;;;;5035629;28;20511;-70
2023/07/03 00:20:22;;;;;;;8.55;2.15;;;16.40;99.90;;;;;;5036226;28;20041;-70
2023/07/03 00:22:48;;;;;;;8.13;2.78;;;16.30;99.90;;;;;;5053813;28;20441;-70
2023/07/03 00:25:14;;;;;;;12.82;2.90;;;16.30;99.90;;;;;;5035733;28;20132;-70
2023/07/03 00:27:40;;;;;;;9.45;2.45;;;16.20;99.90;;;;;;5036093;28;20135;-70
2023/07/03 00:30:06;;;;;;;12.55;2.40;;;16.20;99.90;;;;;;5054380;28;20467;-70
2023/07/03 00:32:32;;;;;;;13.00;2.60;;;16.20;99.90;;;;;;5052926;28;20052;-70
2023/07/03 00:34:58;;;;;;;8.50;2.30;;;16.20;99.90;;;;;;5035931;28;20045;-70
2023/07/03 00:37:24;;;;;;;8.15;2.20;;;16.10;99.90;;;;;;5053458;28;20118;-70
2023/07/03 00:39:50;;;;;;;12.55;2.63;;;16.20;99.90;;;;;;5034326;28;20529;-70
2023/07/03 00:42:16;;;;;;;5.55;2.15;;;16.20;99.90;;;;;;5053381;28;20055;-70
2023/07/03 00:44:42;;;;;;;8.35;2.15;;;16.20;99.90;;;;;;5036049;28;20393;-70
2023/07/03 00:47:11;;;;;;;10.98;2.53;;;16.20;99.90;;;;;;5035563;28;20049;-71
2023/07/03 00:49:37;;;;;;;6.60;2.17;;;16.30;99.90;;;;;;5053500;28;20159;-70
2023/07/03 00:52:04;;;;;;;9.30;2.25;;;16.30;99.90;;;;;;5035650;28;20492;-70
2023/07/03 00:54:30;;;;;;;9.38;2.70;;;16.20;99.90;;;;;;5035207;28;20079;-70
2023/07/03 00:56:56;;;;;;;8.98;2.30;;;16.20;99.90;;;;;;5035387;28;20480;-70
2023/07/03 00:59:22;;;;;;;7.65;2.30;;;16.10;99.90;;;;;;5053720;28;20463;-70
2023/07/03 01:02:07;;;;;;;8.88;2.22;;;16.10;99.90;;;;;;5034663;28;20040;-71
2023/07/03 01:05:14;;;;;;;7.55;2.08;;;16.10;99.90;;;;;;5053261;28;20497;-69
2023/07/03 01:07:41;;;;;;;8.00;2.80;;;16.00;99.90;;;;;;5052890;28;20041;-69
2023/07/03 01:10:24;;;;;;;8.80;2.10;;;16.00;99.90;;;;;;5053468;28;20037;-69
2023/07/03 01:13:00;;;;;;;8.15;2.83;;;16.00;99.90;;;;;;5052877;28;20055;-68
2023/07/03 01:15:30;;;;;;;7.05;1.90;;;15.90;99.90;;;;;;5034872;28;20041;-68
2023/07/03 01:18:01;;;;;;;9.25;2.20;;;15.90;99.90;;;;;;5035092;28;20488;-68
2023/07/03 01:20:32;;;;;;;9.48;2.47;;;15.80;99.90;;;;;;5034849;28;20056;-68
2023/07/03 01:23:12;;;;;;;10.30;2.05;;;15.70;99.90;;;;;;5052406;28;20037;-68
2023/07/03 01:25:42;;;;;;;7.63;2.00;;;15.60;99.90;;;;;;5052816;28;20090;-69
2023/07/03 01:28:14;;;;;;;6.70;1.98;;;15.60;99.90;;;;;;5035003;28;20484;-68
2023/07/03 01:30:42;;;;;;;8.00;2.05;;;15.50;99.90;;;;;;5034838;28;20048;-68
2023/07/03 01:33:17;;;;;;;10.02;2.78;;;15.60;99.90;;;;;;5034763;28;20060;-69
2023/07/03 01:35:47;;;;;;;10.20;2.08;;;15.50;99.90;;;;;;5034358;28;20451;-69
2023/07/03 01:38:15;;;;;;;8.85;2.20;;;15.40;99.90;;;;;;5049130;28;20143;-69
2023/07/03 01:40:41;;;;;;;10.02;2.45;;;15.30;99.90;;;;;;5032802;28;20049;-69
2023/07/03 01:43:07;;;;;;;10.25;2.15;;;15.20;99.90;;;;;;5032203;28;20056;-69
2023/07/03 01:45:41;;;;;;;13.02;2.67;;;15.20;99.90;;;;;;5014843;28;20099;-69
2023/07/03 01:48:09;;;;;;;9.48;2.65;;;15.10;99.90;;;;;;5052514;28;20048;-68
2023/07/03 01:50:38;;;;;;;8.32;2.10;;;15.00;99.90;;;;;;5033409;28;20401;-69
2023/07/03 01:53:43;;;;;;;11.60;2.50;;;15.00;99.90;;;;;;5035060;28;20523;-69
2023/07/03 01:56:21;;;;;;;9.45;2.42;;;15.00;99.90;;;;;;5025541;28;20056;-68
2023/07/03 01:59:10;;;;;;;7.80;2.30;;;14.90;99.90;;;;;;5028639;28;20045;-71
2023/07/03 02:02:09;;;;;;;11.63;2.55;;;14.80;99.90;;;;;;5048000;28;20079;-71
2023/07/03 02:04:47;;;;;;;8.05;2.38;;;14.90;99.90;;;;;;5016437;28;20067;-70
2023/07/03 02:07:16;;;;;;;9.73;2.03;;;14.90;99.90;;;;;;5034882;28;20120;-71
2023/07/03 02:09:42;;;;;;;8.10;2.05;;;14.80;99.90;;;;;;5052405;28;20381;-70
2023/07/03 02:12:09;;;;;;;9.27;2.53;;;14.80;99.90;;;;;;5033919;28;20052;-70
2023/07/03 02:14:35;;;;;;;12.43;2.63;;;14.70;99.90;;;;;;5034111;28;20398;-70
2023/07/03 02:17:03;;;;;;;7.03;2.20;;;14.80;99.90;;;;;;5052501;28;20049;-70
2023/07/03 02:19:29;;;;;;;10.70;2.35;;;14.80;99.90;;;;;;5033814;28;20041;-70
2023/07/03 02:21:58;;;;;;;7.95;2.30;;;14.80;99.90;;;;;;5034127;28;20459;-70
2023/07/03 02:24:24;;;;;;;11.55;2.50;;;14.80;99.90;;;;;;5033384;28;20091;-69
2023/07/03 02:26:51;;;;;;;11.85;2.40;;;14.80;99.90;;;;;;5034193;28;20041;-70
2023/07/03 02:29:17;;;;;;;9.15;2.05;;;14.80;99.90;;;;;;5035063;28;20366;-70
2023/07/03 02:31:43;;;;;;;8.48;2.33;;;14.70;99.90;;;;;;5033484;28;20045;-70
2023/07/03 02:34:09;;;;;;;4.90;2.17;;;14.70;99.90;;;;;;5033967;28;20485;-70
2023/07/03 02:36:36;;;;;;;10.90;2.13;;;14.80;99.90;;;;;;5034116;28;20050;-70
2023/07/03 02:39:04;;;;;;;16.38;3.05;;;14.70;99.90;;;;;;5033442;28;20048;-70
2023/07/03 02:41:30;;;;;;;9.45;2.30;;;14.60;99.90;;;;;;5034308;28;20106;-70
2023/07/03 02:43:56;;;;;;;13.80;2.80;;;14.70;99.90;;;;;;5034220;28;20045;-70
2023/07/03 02:46:22;;;;;;;12.13;2.55;;;14.60;99.90;;;;;;5033544;28;20041;-70
2023/07/03 02:48:47;;;;;;;11.27;1.88;;;14.60;99.90;;;;;;5034013;28;20203;-70
2023/07/03 02:51:13;;;;;;;13.43;2.42;;;14.60;99.90;;;;;;5034411;28;20037;-70
2023/07/03 02:53:39;;;;;;;9.77;2.35;;;14.60;99.90;;;;;;5033366;28;20159;-70
2023/07/03 02:56:08;;;;;;;9.88;2.60;;;14.60;99.90;;;;;;5034439;28;20053;-70
2023/07/03 02:58:34;;;;;;;9.25;2.13;;;14.60;99.90;;;;;;5033370;28;20049;-70
2023/07/03 03:01:01;;;;;;;12.73;2.30;;;14.60;99.90;;;;;;5051238;28;20043;-70
2023/07/03 03:03:27;;;;;;;7.47;2.03;;;14.50;99.90;;;;;;5037658;28;20049;-70
2023/07/03 03:05:56;;;;;;;12.70;2.47;;;14.40;99.90;;;;;;5037199;28;20103;-70
2023/07/03 03:08:24;;;;;;;12.82;2.50;;;14.40;99.90;;;;;;5055146;28;20535;-70
2023/07/03 03:10:51;;;;;;;9.80;2.33;;;14.40;99.90;;;;;;5037191;28;20053;-70
2023/07/03 03:13:17;;;;;;;13.30;2.53;;;14.40;99.90;;;;;;5055383;28;20055;-69
2023/07/03 03:15:43;;;;;;;11.45;2.30;;;14.30;99.90;;;;;;5052494;28;20080;-69
2023/07/03 03:18:09;;;;;;;9.95;2.40;;;14.30;99.90;;;;;;5035417;28;20123;-69
2023/07/03 03:20:35;;;;;;;11.18;2.50;;;14.30;99.90;;;;;;5017268;28;20052;-70
2023/07/03 03:23:01;;;;;;;16.40;2.65;;;14.30;99.90;;;;;;5016920;28;20037;-70
2023/07/03 03:25:27;;;;;;;9.00;2.50;;;14.30;99.90;;;;;;5025589;28;20128;-70
2023/07/03 03:27:53;;;;;;;8.77;2.50;;;14.40;99.90;;;;;;5054083;28;20123;-71
2023/07/03 03:30:19;;;;;;;7.00;2.47;;;14.40;99.90;;;;;;5054945;28;20083;-69
2023/07/03 03:32:47;;;;;;;13.65;2.50;;;14.40;99.90;;;;;;5037234;28;20405;-70
2023/07/03 03:35:13;;;;;;;10.20;2.17;;;14.30;99.90;;;;;;5038020;28;20033;-69
2023/07/03 03:37:39;;;;;;;9.65;2.40;;;14.30;99.90;;;;;;5034363;28;20504;-71
2023/07/03 03:40:07;;;;;;;9.38;2.10;;;14.30;99.90;;;;;;5043930;28;20045;-70
2023/07/03 03:42:34;;;;;;;9.13;1.80;;;14.30;99.90;;;;;;5047667;28;20053;-70
2023/07/03 03:45:00;;;;;;;8.48;1.80;;;14.30;99.90;;;;;;5034824;28;20485;-71
2023/07/03 03:47:26;;;;;;;10.93;1.95;;;14.30;99.90;;;;;;5034835;28;20049;-70
2023/07/03 03:49:53;;;;;;;8.73;1.80;;;14.30;99.90;;;;;;5036012;28;20064;-71
2023/07/03 03:52:19;;;;;;;7.97;2.15;;;14.30;99.90;;;;;;5054801;28;20125;-70
2023/07/03 03:54:46;;;;;;;8.15;2.05;;;14.40;99.90;;;;;;5054719;28;20485;-70
2023/07/03 03:57:13;;;;;;;9.32;2.33;;;14.30;99.90;;;;;;5053769;28;20412;-71
2023/07/03 03:59:39;;;;;;;10.18;2.15;;;14.30;99.90;;;;;;5036343;28;20128;-70
2023/07/03 04:02:04;;;;;;;6.95;1.60;;;14.40;99.90;;;;;;5036934;28;20476;-71
2023/07/03 04:04:36;;;;;;;10.18;2.00;;;14.40;99.90;;;;;;5035979;28;20053;-69
2023/07/03 04:07:05;;;;;;;8.32;2.20;;;14.30;99.90;;;;;;5035931;28;20081;-69
2023/07/03 04:09:31;;;;;;;10.98;1.70;;;14.40;99.90;;;;;;5036580;28;20047;-71
2023/07/03 04:11:57;;;;;;;6.05;2.00;;;14.40;99.90;;;;;;5035415;28;20052;-71
2023/07/03 04:14:26;;;;;;;9.07;1.92;;;14.50;99.90;;;;;;5036785;28;20140;-71
2023/07/03 04:16:51;;;;;;;6.78;1.70;;;14.60;99.90;;;;;;5053893;28;20048;-71
2023/07/03 04:19:18;;;;;;;11.57;1.80;;;14.70;99.90;;;;;;5053793;28;20051;-71
2023/07/03 04:21:49;;;;;;;9.88;2.20;;;14.70;99.90;;;;;;5054000;28;20404;-71
2023/07/03 04:24:15;;;;;;;6.85;1.50;;;14.80;99.90;;;;;;5053743;28;20040;-71
2023/07/03 04:26:41;;;;;;;8.20;1.70;;;14.90;99.90;;;;;;5035133;28;20044;-70
2023/07/03 04:29:09;;;;;;;11.52;2.20;;;14.90;99.90;;;;;;5053831;28;20037;-70
2023/07/03 04:31:35;;;;;;;4.65;1.58;;;14.90;99.90;;;;;;5053257;28;20152;-70
2023/07/03 04:34:01;;;;;;;6.45;1.60;;;14.90;99.90;;;;;;5036215;28;20473;-69
2023/07/03 04:36:27;;;;;;;9.80;1.70;;;15.00;99.90;;;;;;5035873;28;20095;-69
2023/07/03 04:38:57;;;;;;;8.45;2.03;;;15.00;99.90;;;;;;5034779;28;20542;-70
2023/07/03 04:41:29;;;;;;;7.13;1.73;;;15.10;99.90;;;;;;5029959;28;20104;-73
2023/07/03 04:43:57;;;;;;;5.68;2.00;;;15.20;99.90;;;;;;5050084;28;20080;-73
2023/07/03 04:46:26;;;;;;;9.75;1.80;;;15.20;99.90;;;;;;5052806;28;20033;-78
2023/07/03 04:49:00;;;;;;;8.13;1.70;;;15.20;99.90;;;;;;5053129;28;20045;-78
2023/07/03 04:51:30;;;;;;;8.95;1.83;;;15.20;99.90;;;;;;5035993;28;20055;-80
2023/07/03 04:54:00;;;;;;;8.95;2.00;;;15.30;99.90;;;;;;5034539;28;20076;-80
2023/07/03 04:56:32;;;;;;;9.60;2.40;;;15.90;99.90;;;;;;5034273;28;20439;-79
2023/07/03 04:58:58;;;;;;;7.60;1.70;;;15.50;99.90;;;;;;5042815;28;20084;-72
2023/07/03 05:01:24;;;;;;;7.70;1.48;;;15.40;99.90;;;;;;5035644;28;20080;-73
2023/07/03 05:03:50;;;;;;;5.22;1.50;;;15.30;99.90;;;;;;5073176;28;20041;-73
2023/07/03 05:06:16;;;;;;;6.78;1.38;;;15.40;99.90;;;;;;5072746;28;20044;-72
2023/07/03 05:08:41;;;;;;;8.10;1.42;;;15.40;99.90;;;;;;5068178;28;20082;-78
2023/07/03 05:11:07;;;;;;;6.70;1.70;;;15.40;99.90;;;;;;5035873;28;20128;-77
2023/07/03 05:13:36;;;;;;;9.95;2.03;;;15.50;99.90;;;;;;5025189;28;20052;-77
2023/07/03 05:16:01;;;;;;;11.10;1.88;;;15.60;99.90;;;;;;5035510;28;20064;-76
2023/07/03 05:18:27;;;;;;;9.15;1.90;;;15.60;99.90;;;;;;5035492;28;20045;-76
2023/07/03 05:20:53;;;;;;;8.35;1.83;;;15.70;99.90;;;;;;5034803;28;20603;-75
2023/07/03 05:23:19;;;;;;;9.70;1.73;;;15.60;99.90;;;;;;5053643;28;20084;-74
2023/07/03 05:25:48;;;;;;;7.72;1.88;;;15.60;99.90;;;;;;5052378;28;20136;-77
2023/07/03 05:28:14;;;;;;;6.43;1.48;;;15.70;99.90;;;;;;5051869;28;20436;-74
2023/07/03 05:30:39;;;;;;;7.68;1.52;;;15.90;99.90;;;;;;5034446;28;20037;-82
2023/07/03 05:33:05;;;;;;;7.40;1.58;;;16.10;99.90;;;;;;5052757;28;20071;-72
2023/07/03 05:35:31;;;;;;;5.40;2.20;;;16.20;99.90;;;;;;5044615;28;20037;-74
2023/07/03 05:37:59;;;;;;;8.63;1.40;;;16.30;99.90;;;;;;5046180;28;20037;-72
2023/07/03 05:40:27;;;;;;;9.68;1.50;;;16.30;99.90;;;;;;5052605;28;20071;-70
2023/07/03 05:42:53;;;;;;;7.75;1.55;;;16.40;99.90;;;;;;5052303;28;20045;-71
2023/07/03 05:45:19;;;;;;;4.63;1.33;;;16.40;99.90;;;;;;5035038;28;20045;-72
2023/07/03 05:47:44;;;;;;;6.50;1.70;;;16.40;99.90;;;;;;5033948;28;20048;-80
2023/07/03 05:50:10;;;;;;;8.27;1.50;;;16.20;99.90;;;;;;5032155;28;20044;-81
2023/07/03 05:52:39;;;;;;;9.40;1.75;;;16.20;99.90;;;;;;5031076;28;20128;-77
2023/07/03 05:55:05;;;;;;;5.57;1.83;;;16.30;99.90;;;;;;5052693;28;20037;-73
2023/07/03 05:57:31;;;;;;;6.47;1.80;;;16.30;99.90;;;;;;5041231;28;20045;-73
2023/07/03 05:59:59;;;;;;;5.88;1.40;;;16.30;99.90;;;;;;5050390;28;20041;-71
2023/07/03 06:02:25;;;;;;;6.03;1.30;;;16.10;99.90;;;;;;5045768;28;20140;-71
2023/07/03 06:04:51;;;;;;;8.70;1.85;;;16.00;99.90;;;;;;5048274;28;20144;-71
2023/07/03 06:07:19;;;;;;;10.00;1.38;;;15.80;99.90;;;;;;5025041;28;20037;-71
2023/07/03 06:09:46;;;;;;;4.40;1.23;;;15.60;99.90;;;;;;5019301;28;20037;-71
2023/07/03 06:12:11;;;;;;;8.27;1.73;;;15.50;99.90;;;;;;5049031;28;20100;-71
2023/07/03 06:14:37;;;;;;;13.05;1.88;;;15.50;99.90;;;;;;5027601;28;20485;-71
2023/07/03 06:17:03;;;;;;;8.45;1.58;;;15.40;99.90;;;;;;5025485;28;20093;-71
2023/07/03 06:19:29;;;;;;;9.60;1.83;;;15.30;99.90;;;;;;5042965;28;20068;-71
2023/07/03 06:21:56;;;;;;;8.45;1.63;;;15.40;99.90;;;;;;5037483;28;20187;-71
2023/07/03 06:24:22;;;;;;;9.88;1.67;;;15.40;99.90;;;;;;5029410;28;20041;-70
2023/07/03 06:26:47;;;;;;;8.13;1.73;;;15.40;99.90;;;;;;5033259;28;20389;-71
2023/07/03 06:29:14;;;;;;;9.60;1.60;;;15.40;99.90;;;;;;5046243;28;20085;-71
2023/07/03 06:31:43;;;;;;;5.88;1.55;;;15.40;99.90;;;;;;5051398;28;20049;-72
2023/07/03 06:34:09;;;;;;;8.23;1.63;;;15.40;99.90;;;;;;5035979;28;20048;-71
2023/07/03 06:36:34;;;;;;;7.75;1.60;;;15.60;99.90;;;;;;5050042;28;20044;-72
2023/07/03 06:39:04;;;;;;;10.07;1.98;;;15.80;99.90;;;;;;5073427;28;20454;-71
2023/07/03 06:41:31;;;;;;;8.38;2.28;;;15.90;99.90;;;;;;5047223;28;20393;-72
2023/07/03 06:43:57;;;;;;;6.40;1.48;;;16.00;99.90;;;;;;5018890;28;20041;-71
2023/07/03 06:46:23;;;;;;;7.20;1.70;;;16.20;99.90;;;;;;5035004;28;20069;-71
2023/07/03 06:48:50;;;;;;;5.40;1.50;;;16.30;99.90;;;;;;5036599;28;20049;-71
2023/07/03 06:51:16;;;;;;;9.73;1.95;;;16.50;99.90;;;;;;5049050;28;20048;-71
2023/07/03 06:53:44;;;;;;;6.30;1.70;;;16.60;99.90;;;;;;5054978;28;20056;-71
2023/07/03 06:56:10;;;;;;;7.25;1.50;;;16.70;99.90;;;;;;5056121;28;20067;-71
2023/07/03 06:58:36;;;;;;;12.48;1.88;;;16.80;99.90;;;;;;5039465;28;20460;-71
2023/07/03 07:01:07;;;;;;;9.05;2.35;;;16.90;99.90;;;;;;5031568;28;20040;-72
2023/07/03 07:03:32;;;;;;;6.47;1.75;;;16.90;99.90;;;;;;5054484;28;20052;-72
2023/07/03 07:06:06;;;;;;;6.85;1.70;;;16.90;99.90;;;;;;5053698;28;20039;-73
2023/07/03 07:08:34;;;;;;;;;;;16.90;99.90;;;;;;5055978;28;20052;-71
2023/07/03 07:11:00;;;;;;;5.83;1.10;;;16.90;99.90;;;;;;5055315;28;20279;-72
2023/07/03 07:13:26;;;;;;;5.15;1.20;;;16.90;99.90;;;;;;5055393;28;20048;-73
2023/07/03 07:15:52;;;;;;;5.18;1.00;;;16.90;99.90;;;;;;5037596;28;20041;-72
2023/07/03 07:18:18;;;;;;;6.40;1.30;;;17.00;99.90;;;;;;5049498;28;20040;-72
2023/07/03 07:20:43;;;;;;;8.48;1.40;;;17.20;99.90;;;;;;5054617;28;20495;-72
2023/07/03 07:23:09;;;;;;;4.13;1.20;;;17.20;99.90;;;;;;5055068;28;20056;-72
2023/07/03 07:25:35;;;;;;;5.93;1.35;;;17.70;99.90;;;;;;5072981;28;20041;-71
2023/07/03 07:28:04;;;;;;;5.88;1.55;;;18.30;99.90;;;;;;5072789;28;20036;-71
2023/07/03 07:30:31;;;;;;;6.78;1.70;;;18.40;99.70;;;;;;5073973;28;20036;-72
2023/07/03 07:32:57;;;;;;;7.10;1.33;;;18.70;99.90;;;;;;5055525;28;20079;-72
2023/07/03 07:35:23;;;;;;;6.15;1.38;;;19.20;98.90;;;;;;5052166;28;20068;-72
2023/07/03 07:37:49;;;;;;;7.20;1.40;;;19.60;98.60;;;;;;5042742;28;20048;-73
2023/07/03 07:40:16;;;;;;;7.93;1.77;;;19.40;98.30;;;;;;5036563;28;20528;-72
2023/07/03 07:42:41;;;;;;;5.85;1.63;;;19.40;97.80;;;;;;5036477;28;20049;-73
2023/07/03 07:45:07;;;;;;;5.82;1.38;;;19.50;97.30;;;;;;5024335;28;20129;-73
2023/07/03 07:47:36;;;;;;;7.13;1.58;;;19.90;97.30;;;;;;5033847;28;20494;-72
2023/07/03 07:50:02;;;;;;;5.00;1.40;;;20.20;97.40;;;;;;5015631;28;20068;-72
2023/07/03 07:52:28;;;;;;;5.82;1.52;;;20.50;97.40;;;;;;5017457;28;20510;-72
2023/07/03 07:55:03;;;;;;;7.07;1.65;;;20.40;96.20;;;;;;5017026;28;20041;-73
2023/07/03 07:57:35;;;;;;;5.90;1.73;;;20.80;95.90;;;;;;5030803;28;20056;-73
2023/07/03 08:00:01;;;;;;;4.38;1.50;;;21.00;95.50;;;;;;5036861;28;20037;-72
2023/07/03 08:02:30;;;;;;;4.93;1.33;;;21.40;95.80;;;;;;5053447;28;20140;-74
2023/07/03 08:04:56;;;;;;;6.13;1.42;;;21.90;95.80;;;;;;5054706;28;20524;-72
2023/07/03 08:07:25;;;;;;;5.65;1.40;;;21.80;94.30;;;;;;5052372;28;20052;-74
2023/07/03 08:09:51;;;;;;;6.15;1.73;;;21.20;94.70;;;;;;5036111;28;20179;-74
2023/07/03 08:12:16;;;;;;;8.15;1.40;;;21.40;95.00;;;;;;5034423;28;20139;-74
2023/07/03 08:14:42;;;;;;;7.53;1.35;;;21.50;94.80;;;;;;5034354;28;20045;-74
2023/07/03 08:17:08;;;;;;;3.90;1.20;;;21.40;94.80;;;;;;5040132;28;20588;-74
2023/07/03 08:19:33;;;;;;;6.30;1.30;;;21.00;95.30;;;;;;5053361;28;20029;-74
2023/07/03 08:21:59;;;;;;;4.75;1.20;;;20.70;95.80;;;;;;5046002;28;20040;-74
2023/07/03 08:24:25;;;;;;;7.03;1.45;;;20.50;96.00;;;;;;5015459;28;20049;-74
2023/07/03 08:26:53;;;;;;;6.20;1.42;;;20.50;95.80;;;;;;5049016;28;20072;-74
2023/07/03 08:29:19;;;;;;;7.90;1.67;;;20.70;95.90;;;;;;5054566;28;20041;-74
2023/07/03 08:31:48;;;;;;;8.43;1.70;;;21.00;96.00;;;;;;5053426;28;20049;-74
2023/07/03 08:34:16;;;;;;;7.78;1.38;;;21.40;96.10;;;;;;5054503;28;20044;-74
2023/07/03 08:36:42;;;;;;;4.38;1.00;;;21.00;95.00;;;;;;5035980;28;20091;-74
2023/07/03 08:39:08;;;;;;;7.07;1.63;;;21.00;95.90;;;;;;5036960;28;20532;-74
2023/07/03 08:41:49;;;;;;;6.32;1.48;;;21.30;94.90;;;;;;5015995;28;20052;-74
2023/07/03 08:44:18;;;;;;;6.70;1.40;;;22.00;94.70;;;;;;5015797;28;20091;-74
2023/07/03 08:46:45;;;;;;;5.80;1.30;;;22.60;93.40;;;;;;5016416;28;20081;-74
2023/07/03 08:49:15;;;;;;;4.88;1.40;;;23.00;93.00;;;;;;5016161;28;20489;-75
2023/07/03 08:51:41;;;;;;;7.40;1.30;;;23.30;93.10;;;;;;5016142;28;20481;-74
2023/07/03 08:54:18;;;;;;;5.03;1.55;;;23.40;92.10;;;;;;5047907;28;20050;-74
2023/07/03 08:56:44;;;;;;;6.05;1.35;;;23.00;91.30;;;;;;5034809;28;20041;-72
2023/07/03 08:59:13;;;;;;;5.38;1.40;;;23.30;91.70;;;;;;5053091;28;20067;-72
2023/07/03 09:01:50;;;;;;;4.18;1.35;;;23.30;91.00;;;;;;5041877;28;20049;-73
2023/07/03 09:04:41;;;;;;;6.43;1.80;;;23.00;91.90;;;;;;5029287;28;20045;-73
2023/07/03 09:07:21;;;;;;;6.38;1.20;;;22.90;93.00;;;;;;5046447;28;20051;-74
2023/07/03 09:10:12;;;;;;;5.85;1.42;;;23.00;91.70;;;;;;5016598;28;20163;-74
2023/07/03 09:12:48;;;;;;;5.28;1.40;;;23.00;91.90;;;;;;5033376;28;20106;-75
2023/07/03 09:15:36;;;;;;;5.53;1.50;;;23.10;91.90;;;;;;5026052;28;20469;-74
2023/07/03 09:22:52;;;;;;;4.15;1.40;;;22.90;91.80;;;;;;5052881;28;20045;-75
2023/07/03 09:33:27;;;;;;;4.55;1.25;;;23.60;91.10;;;;;;5092127;28;20052;-73
2023/07/03 09:35:53;;;;;;;5.22;1.40;;;23.40;91.70;;;;;;5072970;28;20074;-73
2023/07/03 09:38:24;;;;;;;5.13;1.20;;;23.00;91.20;;;;;;5091414;28;20052;-72
2023/07/03 09:40:52;;;;;;;5.60;1.27;;;23.20;90.40;;;;;;5088337;28;20041;-73
2023/07/03 09:43:25;;;;;;;6.10;1.58;;;23.10;90.90;;;;;;5091188;28;20052;-74
2023/07/03 09:46:01;;;;;;;3.83;1.00;;;22.90;88.60;;;;;;5091967;28;20032;-73
2023/07/03 09:48:30;;;;;;;5.20;1.40;;;22.40;89.30;;;;;;5073378;28;20082;-73
2023/07/03 09:50:59;;;;;;;5.70;1.30;;;21.80;90.90;;;;;;5074110;28;20047;-72
2023/07/03 09:53:26;;;;;;;7.05;1.42;;;21.40;91.70;;;;;;5091871;28;20139;-72
2023/07/03 09:55:57;;;;;;;4.70;1.30;;;20.80;92.40;;;;;;5091075;28;20044;-72
2023/07/03 09:58:27;;;;;;;6.35;1.83;;;20.40;93.50;;;;;;5069832;28;20052;-72
2023/07/03 10:00:56;;;;;;;4.97;1.40;;;20.00;94.20;;;;;;5091548;28;20066;-72
2023/07/03 10:03:32;;;;;;;7.07;1.52;;;19.60;94.60;;;;;;5090989;28;20048;-73
2023/07/03 10:06:12;;;;;;;5.70;1.38;;;19.30;95.40;;;;;;5091918;28;20040;-74
2023/07/03 10:08:58;;;;;;;5.63;1.35;;;19.10;96.30;;;;;;5072183;28;20053;-74
2023/07/03 10:11:38;;;;;;;7.45;1.35;;;18.90;96.70;;;;;;5087763;28;20068;-74
2023/07/03 10:14:08;;;;;;;6.78;1.70;;;18.80;97.20;;;;;;5065833;28;20058;-73
2023/07/03 10:16:37;;;;;;;7.78;1.85;;;18.70;97.20;;;;;;5091360;28;20036;-73
2023/07/03 10:19:03;;;;;;;5.32;1.52;;;18.50;97.80;;;;;;5054239;28;20052;-72
2023/07/03 10:21:30;;;;;;;6.15;1.30;;;18.40;97.90;;;;;;5072344;28;20453;-72
2023/07/03 10:24:01;;;;;;;6.93;1.42;;;18.40;98.30;;;;;;5087871;28;20044;-73
2023/07/03 10:26:32;;;;;;;8.13;1.52;;;18.50;98.60;;;;;;5096995;28;20059;-73
2023/07/03 10:29:08;;;;;;;5.30;1.60;;;18.60;98.60;;;;;;5076678;28;20127;-72
2023/07/03 10:31:37;;;;;;;;;;;18.70;98.60;;;;;;5092095;28;20036;-72
2023/07/03 10:34:14;;;;;;;5.40;1.60;;;18.70;98.80;;;;;;5092365;28;19920;-74
2023/07/03 10:36:43;;;;;;;5.78;1.52;;;18.80;98.50;;;;;;5091984;28;20047;-73
2023/07/03 10:39:22;;;;;;;8.05;1.70;;;18.80;98.20;;;;;;5091352;28;20054;-73
2023/07/03 10:41:54;;;;;;;7.80;1.50;;;18.80;97.70;;;;;;5091898;28;20066;-72
2023/07/03 10:44:25;;;;;;;6.30;2.47;;;19.20;97.60;;;;;;5091315;28;20127;-73
2023/07/03 10:47:02;;;;;;;4.60;1.60;;;19.50;96.70;;;;;;5091885;28;20441;-73
2023/07/03 10:49:33;;;;;;;4.72;1.27;;;20.00;96.10;;;;;;5092340;28;20120;-72
2023/07/03 10:52:34;;;;;;;8.25;1.38;;;20.60;96.10;;;;;;5091595;28;20032;-74
2023/07/03 10:55:21;;;;;;;5.18;1.35;;;21.20;93.50;;;;;;5077266;28;20070;-74
2023/07/03 10:58:36;;;;;;;7.20;1.50;;;21.10;93.70;;;;;;5091279;28;20044;-74
2023/07/03 11:01:22;;;;;;;6.28;1.42;;;21.60;93.30;;;;;;5023455;28;20059;-74
2023/07/03 11:04:19;;;;;;;6.43;1.48;;;21.10;92.80;;;;;;5091911;28;20036;-75
2023/07/03 11:07:08;;;;;;;10.10;1.70;;;20.50;94.10;;;;;;5073164;28;20170;-77
2023/07/03 11:09:47;;;;;;;7.63;2.17;;;20.70;94.80;;;;;;5072975;28;20060;-75
2023/07/03 11:12:42;;;;;;;4.55;1.33;;;20.60;94.00;;;;;;5091868;28;20045;-77
2023/07/03 11:15:49;;;;;;;7.78;1.42;;;20.80;94.00;;;;;;5074236;28;20050;-73
2023/07/03 11:18:38;;;;;;;2.83;1.03;;;20.80;93.10;;;;;;5085135;28;20057;-74
2023/07/03 11:21:25;;;;;;;6.07;1.65;;;21.00;93.70;;;;;;5053312;28;20511;-75
2023/07/03 11:23:54;;;;;;;5.88;1.30;;;21.30;92.80;;;;;;5074300;28;20059;-75
2023/07/03 11:26:32;;;;;;;8.02;1.50;;;21.20;92.30;;;;;;5074377;28;20044;-74
2023/07/03 11:28:58;;;;;;;6.32;1.20;;;21.20;93.00;;;;;;5074249;28;20593;-73
2023/07/03 11:31:25;;;;;;;5.28;1.38;;;21.40;92.50;;;;;;5056129;28;20041;-74
2023/07/03 11:33:57;;;;;;;5.03;1.35;;;21.20;92.30;;;;;;5109604;22;20364;-73
2023/07/03 11:43:21;;;;;;;5.70;1.45;;;21.00;93.30;;;;;;5435689;22;20064;-71
2023/07/03 11:45:56;;;;;;;4.63;1.42;;;20.40;93.30;;;;;;5037210;28;20048;-72
2023/07/03 11:48:33;;;;;;;4.30;1.10;;;20.40;93.80;;;;;;5036672;28;20055;-71
2023/07/03 11:51:01;;;;;;;6.78;1.70;;;20.30;94.60;;;;;;5035606;28;20128;-70
2023/07/03 11:53:46;;;;;;;6.57;1.40;;;20.50;94.10;;;;;;5037816;28;20397;-72
2023/07/03 11:56:32;;;;;;;5.65;1.38;;;20.40;94.40;;;;;;5033160;28;20049;-73
2023/07/03 11:59:24;;;;;;;4.97;1.30;;;20.30;94.30;;;;;;5022187;28;20113;-72
2023/07/03 12:01:52;;;;;;;7.13;1.35;;;20.10;94.50;;;;;;5044429;28;20049;-72
2023/07/03 12:04:46;;;;;;;7.72;1.50;;;19.90;94.80;;;;;;5035096;28;20137;-72
2023/07/03 12:07:18;;;;;;;7.47;1.50;;;20.40;95.60;;;;;;4992862;28;20053;-73
2023/07/03 12:09:45;;;;;;;8.57;1.38;;;20.80;94.70;;;;;;5035067;28;20172;-73
2023/07/03 12:12:13;;;;;;;7.30;1.38;;;21.20;94.10;;;;;;5054722;28;20413;-73
2023/07/03 12:14:42;;;;;;;4.25;1.30;;;21.10;94.10;;;;;;5053984;28;20033;-72
2023/07/03 12:17:29;;;;;;;6.57;1.55;;;21.50;93.10;;;;;;5053775;28;20045;-72
2023/07/03 12:20:10;;;;;;;3.97;1.13;;;21.60;92.70;;;;;;5036535;28;20053;-72
2023/07/03 12:22:50;;;;;;;5.15;1.20;;;21.40;92.70;;;;;;5035716;28;20477;-72
2023/07/03 12:25:27;;;;;;;7.65;1.33;;;21.60;93.30;;;;;;5053523;28;20380;-72
2023/07/03 12:28:06;;;;;;;5.20;1.40;;;21.50;92.40;;;;;;5054462;28;20076;-72
2023/07/03 12:30:32;;;;;;;7.70;1.23;;;21.60;92.60;;;;;;5028839;28;20045;-72
2023/07/03 12:32:59;;;;;;;4.65;1.30;;;21.70;91.40;;;;;;5036245;28;20485;-72
2023/07/03 12:35:32;;;;;;;6.20;1.60;;;21.90;92.50;;;;;;5036735;28;20389;-72
2023/07/03 12:38:07;;;;;;;5.32;1.40;;;22.10;91.20;;;;;;5053659;28;20067;-72
2023/07/03 12:40:41;;;;;;;6.28;1.55;;;22.00;91.70;;;;;;5053497;28;20041;-72
2023/07/03 12:43:08;;;;;;;5.43;1.42;;;22.10;92.70;;;;;;5063439;28;20134;-72
2023/07/03 12:45:34;;;;;;;5.35;1.40;;;22.10;91.60;;;;;;5073405;28;20040;-72
2023/07/03 12:48:20;;;;;;;6.95;1.30;;;21.80;91.70;;;;;;5056246;28;20044;-72
2023/07/03 12:50:56;;;;;;;3.70;1.17;;;21.80;91.90;;;;;;5054749;28;20059;-72
2023/07/03 12:53:24;;;;;;;5.88;1.20;;;22.10;91.30;;;;;;5055969;28;20123;-71
2023/07/03 12:55:58;;;;;;;4.93;1.35;;;22.10;90.60;;;;;;5055765;28;20048;-72
2023/07/03 12:58:25;;;;;;;5.00;1.30;;;21.70;91.30;;;;;;5055169;28;20404;-72
2023/07/03 13:01:02;;;;;;;5.95;1.33;;;21.00;91.70;;;;;;5048499;28;20132;-73
2023/07/03 13:03:28;;;;;;;6.30;1.30;;;21.10;92.70;;;;;;5058668;28;20040;-72
2023/07/03 13:05:54;;;;;;;6.28;1.27;;;21.20;93.90;;;;;;5049846;28;20123;-72
2023/07/03 13:08:19;;;;;;;5.35;1.30;;;21.20;93.70;;;;;;5053935;28;20201;-72
2023/07/03 13:11:05;;;;;;;5.28;1.40;;;20.90;93.80;;;;;;5053990;28;20048;-72
2023/07/03 13:16:11;;;;;;;5.95;1.33;;;20.70;93.90;;;;;;5025509;28;20065;-73
2023/07/03 13:18:37;;;;;;;5.68;1.40;;;20.80;94.20;;;;;;4994431;28;20054;-72
2023/07/03 13:21:10;;;;;;;7.43;1.52;;;21.00;94.30;;;;;;5013616;28;20601;-72
2023/07/03 13:23:40;;;;;;;5.75;1.50;;;21.20;94.20;;;;;;4996075;28;20061;-72